createdAt,value
2018-04-25T03:22:06.427Z,75.76
2018-04-25T03:23:06.496Z,76.71
2018-04-25T03:24:06.391Z,75.89
2018-04-25T03:25:06.356Z,76.52
2018-04-25T03:26:06.346Z,76.81
2018-04-25T03:27:16.225Z,77.38
2018-04-25T03:28:59.837Z,77.28
2018-04-25T03:29:59.797Z,77.28
2018-04-25T03:30:59.752Z,76.81
2018-04-25T03:31:59.763Z,76.52
2018-04-25T03:32:59.724Z,76.90
2018-04-25T03:33:59.765Z,77.57
2018-04-25T03:34:59.744Z,77.86
2018-04-25T03:35:59.766Z,77.92
2018-04-25T03:36:59.706Z,78.58
2018-04-25T03:37:59.707Z,78.63
2018-04-25T03:38:59.731Z,77.86
2018-04-25T03:39:59.710Z,76.42
2018-04-25T03:40:59.761Z,76.23
2018-04-25T03:41:59.695Z,77.00
2018-04-25T03:42:59.758Z,76.81
2018-04-25T03:43:59.733Z,77.19
2018-04-25T03:44:59.720Z,78.05
2018-04-25T03:45:59.707Z,77.67
2018-04-25T03:46:59.715Z,77.48
2018-04-25T03:47:59.737Z,76.81
2018-04-25T03:48:59.686Z,77.19
2018-04-25T03:49:59.708Z,76.56
2018-04-25T03:50:59.690Z,75.70
2018-04-25T03:51:59.682Z,76.52
2018-04-25T03:52:59.681Z,76.42
2018-04-25T03:53:59.688Z,76.62
2018-04-25T03:54:59.678Z,75.70
2018-04-25T03:55:59.719Z,75.79
2018-04-25T03:56:59.677Z,75.51
2018-04-25T03:57:59.726Z,75.70
2018-04-25T03:58:59.785Z,75.02
2018-04-25T03:59:59.680Z,74.84
2018-04-25T04:00:59.705Z,76.08
2018-04-25T04:01:59.707Z,74.93
2018-04-25T04:03:08.396Z,74.93
2018-04-25T04:04:54.795Z,75.98
